createdAt,value
2022-10-24T00:02:24.207Z,15.10
2022-10-24T00:04:51.004Z,15.00
2022-10-24T00:07:17.752Z,14.90
2022-10-24T00:09:44.534Z,14.80
2022-10-24T00:12:11.287Z,14.80
2022-10-24T00:14:38.216Z,14.80
2022-10-24T00:17:04.885Z,14.70
2022-10-24T00:19:31.542Z,14.70
2022-10-24T00:21:58.265Z,14.70
2022-10-24T00:24:24.952Z,14.80
2022-10-24T00:26:52.045Z,14.80
2022-10-24T00:29:18.822Z,14.80
2022-10-24T00:31:45.584Z,14.80
2022-10-24T00:34:12.427Z,14.80
2022-10-24T00:36:39.150Z,14.70
2022-10-24T00:39:05.845Z,14.70
2022-10-24T00:41:37.731Z,14.70
2022-10-24T00:44:18.469Z,14.70
2022-10-24T00:47:10.716Z,14.70
2022-10-24T00:49:44.378Z,14.60
2022-10-24T00:52:11.118Z,14.60
2022-10-24T00:54:37.866Z,14.50
2022-10-24T00:57:28.219Z,14.50
2022-10-24T01:00:00.629Z,14.50
2022-10-24T01:02:27.323Z,14.50
2022-10-24T01:04:55.328Z,14.50
2022-10-24T01:07:40.568Z,14.50
2022-10-24T01:10:18.517Z,14.50
2022-10-24T01:12:50.302Z,14.50
2022-10-24T01:15:47.720Z,14.60
2022-10-24T01:18:43.070Z,14.60
2022-10-24T01:21:18.666Z,14.60
2022-10-24T01:24:04.393Z,14.60
2022-10-24T01:26:54.727Z,14.70
2022-10-24T01:29:47.212Z,14.70
2022-10-24T01:32:44.016Z,14.70
2022-10-24T01:35:10.649Z,14.70
2022-10-24T01:37:47.481Z,14.70
2022-10-24T01:40:26.722Z,14.70
2022-10-24T01:42:53.874Z,14.70
2022-10-24T01:45:33.315Z,14.70
2022-10-24T01:48:01.984Z,14.70
2022-10-24T01:50:28.666Z,14.80
2022-10-24T01:52:55.593Z,14.70
2022-10-24T01:55:22.508Z,14.70
2022-10-24T01:57:49.227Z,14.70
2022-10-24T02:00:20.213Z,14.70
2022-10-24T02:02:50.076Z,14.70
2022-10-24T02:05:38.503Z,14.70
2022-10-24T02:08:10.065Z,14.70
2022-10-24T02:10:48.742Z,14.80
2022-10-24T02:13:19.552Z,14.80
2022-10-24T02:15:49.454Z,14.70
2022-10-24T02:18:16.138Z,14.70
2022-10-24T02:20:47.094Z,14.70
2022-10-24T02:23:21.653Z,14.70
2022-10-24T02:25:49.995Z,14.80
2022-10-24T02:28:18.956Z,14.80
2022-10-24T02:31:15.563Z,14.70
2022-10-24T02:33:42.269Z,14.80
2022-10-24T02:36:10.183Z,14.70
2022-10-24T02:38:38.407Z,14.70
2022-10-24T02:41:07.852Z,14.70
2022-10-24T02:43:34.631Z,14.60
2022-10-24T02:46:01.442Z,14.60
2022-10-24T02:48:31.335Z,14.60
2022-10-24T02:50:58.171Z,14.60
2022-10-24T02:53:25.169Z,14.60
2022-10-24T02:55:52.113Z,14.60
2022-10-24T02:58:18.792Z,14.50
2022-10-24T03:00:45.491Z,14.50
2022-10-24T03:03:12.330Z,14.50
2022-10-24T03:05:39.105Z,14.40
2022-10-24T03:08:06.054Z,14.50
2022-10-24T03:10:32.723Z,14.40
2022-10-24T03:12:59.442Z,14.40
2022-10-24T03:15:26.155Z,14.50
2022-10-24T03:17:52.867Z,14.50
2022-10-24T03:20:19.593Z,14.50
2022-10-24T03:22:46.359Z,14.50
2022-10-24T03:25:13.015Z,14.50
2022-10-24T03:27:39.682Z,14.50
2022-10-24T03:30:06.922Z,14.50
2022-10-24T03:32:33.587Z,14.50
2022-10-24T03:35:00.711Z,14.50
2022-10-24T03:37:27.529Z,14.50
2022-10-24T03:39:54.303Z,14.50
2022-10-24T03:42:21.377Z,14.50
2022-10-24T03:44:48.161Z,14.50
2022-10-24T03:47:14.904Z,14.50
2022-10-24T03:49:41.576Z,14.50
2022-10-24T03:52:08.325Z,14.50
2022-10-24T03:54:34.994Z,14.50
2022-10-24T03:57:01.801Z,14.50
2022-10-24T03:59:28.479Z,14.50
2022-10-24T04:01:55.371Z,14.50
2022-10-24T04:04:22.177Z,14.40
2022-10-24T04:06:48.857Z,14.50
2022-10-24T04:09:15.530Z,14.40
2022-10-24T04:11:42.203Z,14.40
2022-10-24T04:14:08.908Z,14.30
2022-10-24T04:16:35.943Z,14.30
2022-10-24T04:19:02.614Z,14.30
2022-10-24T04:21:29.299Z,14.30
2022-10-24T04:23:55.994Z,14.30
2022-10-24T04:26:22.688Z,14.30
2022-10-24T04:28:49.404Z,14.20
2022-10-24T04:31:18.279Z,14.10
2022-10-24T04:33:47.762Z,14.10
2022-10-24T04:36:14.700Z,14.10
2022-10-24T04:38:41.446Z,14.10
2022-10-24T04:41:11.215Z,14.10
2022-10-24T04:43:39.248Z,14.10
2022-10-24T04:46:06.004Z,14.10
2022-10-24T04:48:32.707Z,14.10
2022-10-24T04:50:59.455Z,14.10
2022-10-24T04:53:26.161Z,14.10
2022-10-24T04:55:52.809Z,14.10
2022-10-24T04:58:19.494Z,14.10
2022-10-24T05:00:46.235Z,14.10
2022-10-24T05:03:13.478Z,14.00
2022-10-24T05:05:40.212Z,14.00
2022-10-24T05:08:06.965Z,13.90
2022-10-24T05:10:33.699Z,13.90
2022-10-24T05:13:00.378Z,13.80
2022-10-24T05:15:27.122Z,13.80
2022-10-24T05:17:53.951Z,13.80
2022-10-24T05:20:20.689Z,13.80
2022-10-24T05:22:47.626Z,13.80
2022-10-24T05:25:14.503Z,13.80
2022-10-24T05:27:41.232Z,13.90
2022-10-24T05:30:08.347Z,13.90
2022-10-24T05:32:38.681Z,13.90
2022-10-24T05:35:07.133Z,13.90
2022-10-24T05:37:33.894Z,14.00
2022-10-24T05:40:00.628Z,13.90
2022-10-24T05:42:27.343Z,13.90
2022-10-24T05:44:54.048Z,13.90
2022-10-24T05:47:21.937Z,14.00
2022-10-24T05:49:50.341Z,14.00
2022-10-24T05:52:16.999Z,13.90
2022-10-24T05:54:55.410Z,13.90
2022-10-24T05:57:29.390Z,13.90
2022-10-24T05:59:56.060Z,13.90
2022-10-24T06:02:22.836Z,13.80
2022-10-24T06:04:49.600Z,13.70
2022-10-24T06:07:17.109Z,13.60
2022-10-24T06:09:43.802Z,13.60
2022-10-24T06:12:10.766Z,13.50
2022-10-24T06:14:38.108Z,13.50
2022-10-24T06:17:05.063Z,13.50
2022-10-24T06:19:32.357Z,13.40
2022-10-24T06:21:59.046Z,13.30
2022-10-24T06:24:25.699Z,13.30
2022-10-24T06:26:52.359Z,13.30
2022-10-24T06:29:19.053Z,13.20
2022-10-24T06:31:45.766Z,13.20
2022-10-24T06:34:12.454Z,13.20
2022-10-24T06:39:10.752Z,13.10
2022-10-24T06:41:37.419Z,13.10
2022-10-24T06:44:06.650Z,13.10
2022-10-24T06:46:35.505Z,13.00
2022-10-24T06:49:02.193Z,13.00
2022-10-24T06:51:29.292Z,13.00
2022-10-24T06:53:55.952Z,13.00
2022-10-24T06:56:22.682Z,13.00
2022-10-24T06:58:49.368Z,13.00
2022-10-24T07:01:23.667Z,13.00
2022-10-24T07:03:50.575Z,12.90
2022-10-24T07:06:19.489Z,13.00
2022-10-24T07:08:46.457Z,13.00
2022-10-24T07:11:13.367Z,13.00
2022-10-24T07:13:40.062Z,13.00
2022-10-24T07:16:06.886Z,12.90
2022-10-24T07:18:33.637Z,12.90
2022-10-24T07:21:04.819Z,13.00
2022-10-24T07:23:31.834Z,13.00
2022-10-24T07:26:06.072Z,13.00
2022-10-24T07:28:33.206Z,13.00
2022-10-24T07:31:00.145Z,13.00
2022-10-24T07:33:26.955Z,13.00
2022-10-24T07:35:53.703Z,13.10
2022-10-24T07:38:20.448Z,13.10
2022-10-24T07:40:47.244Z,13.10
2022-10-24T07:43:14.173Z,13.10
2022-10-24T07:45:41.046Z,13.20
2022-10-24T07:48:07.819Z,13.20
2022-10-24T07:50:34.901Z,13.20
2022-10-24T07:53:01.651Z,13.20
2022-10-24T07:55:28.343Z,13.30
2022-10-24T07:57:55.026Z,13.30
2022-10-24T08:00:21.709Z,13.30
2022-10-24T08:05:18.163Z,13.40
2022-10-24T08:08:00.327Z,13.40
2022-10-24T08:10:34.440Z,13.40
2022-10-24T08:13:01.183Z,13.50
2022-10-24T08:15:31.026Z,13.60
2022-10-24T08:17:57.704Z,13.70
2022-10-24T08:20:24.374Z,13.90
2022-10-24T08:22:51.040Z,14.00
2022-10-24T08:25:17.827Z,14.10
2022-10-24T08:27:44.483Z,14.20
2022-10-24T08:30:11.631Z,14.40
2022-10-24T08:32:38.347Z,14.50
2022-10-24T08:35:06.363Z,14.50
2022-10-24T08:40:08.606Z,14.80
2022-10-24T08:42:35.421Z,14.90
2022-10-24T08:45:02.125Z,15.00
2022-10-24T08:47:55.955Z,15.10
2022-10-24T08:50:26.771Z,15.20
2022-10-24T08:53:04.322Z,15.20
2022-10-24T08:55:49.376Z,15.30
2022-10-24T08:58:18.741Z,15.40
2022-10-24T09:00:46.577Z,15.40
2022-10-24T09:06:25.286Z,15.60
2022-10-24T09:09:04.989Z,15.60
2022-10-24T09:11:51.610Z,15.70
2022-10-24T09:14:23.258Z,15.70
2022-10-24T09:16:53.099Z,15.70
2022-10-24T09:19:24.824Z,15.80
2022-10-24T09:21:52.446Z,15.80
2022-10-24T09:24:37.176Z,15.90
2022-10-24T09:27:05.016Z,16.10
2022-10-24T09:29:32.360Z,16.40
2022-10-24T09:31:59.586Z,16.90
2022-10-24T09:34:26.447Z,17.40
2022-10-24T09:36:53.136Z,18.10
2022-10-24T09:39:28.450Z,18.70
2022-10-24T09:41:55.319Z,19.30
2022-10-24T09:44:32.305Z,19.80
2022-10-24T09:46:59.037Z,19.90
2022-10-24T09:49:30.111Z,20.30
2022-10-24T09:52:05.482Z,20.70
2022-10-24T09:54:33.020Z,21.10
2022-10-24T09:57:06.072Z,21.90
2022-10-24T09:59:34.249Z,22.70
2022-10-24T10:02:24.407Z,23.20
2022-10-24T10:05:03.554Z,24.40
2022-10-24T10:07:32.128Z,25.60
2022-10-24T10:10:07.860Z,26.30
2022-10-24T10:12:35.735Z,27.20
2022-10-24T10:15:25.210Z,28.00
2022-10-24T10:17:53.281Z,28.40
2022-10-24T10:20:28.164Z,28.20
2022-10-24T10:22:54.847Z,27.40
2022-10-24T10:25:31.518Z,26.90
2022-10-24T10:28:01.027Z,26.40
2022-10-24T10:30:29.817Z,26.80
2022-10-24T10:33:18.314Z,27.50
2022-10-24T10:36:02.344Z,28.00
2022-10-24T10:38:51.347Z,28.70
2022-10-24T10:41:33.220Z,29.30
2022-10-24T10:44:29.364Z,29.60
2022-10-24T10:47:05.037Z,29.60
2022-10-24T10:49:34.745Z,28.60
2022-10-24T10:52:21.478Z,27.90
2022-10-24T10:55:16.667Z,27.80
2022-10-24T10:57:58.790Z,27.80
2022-10-24T11:00:38.557Z,28.50
2022-10-24T11:03:28.091Z,29.20
2022-10-24T11:06:22.057Z,29.90
2022-10-24T11:08:48.802Z,30.20
2022-10-24T11:11:18.025Z,30.50
2022-10-24T11:13:58.520Z,30.80
2022-10-24T11:16:28.856Z,30.20
2022-10-24T11:19:00.986Z,29.60
2022-10-24T11:21:27.613Z,28.80
2022-10-24T11:24:13.668Z,28.40
2022-10-24T11:26:42.213Z,28.20
2022-10-24T11:29:29.513Z,28.50
2022-10-24T11:32:08.158Z,29.40
2022-10-24T11:34:42.871Z,30.50
2022-10-24T11:37:19.461Z,31.40
2022-10-24T11:39:57.518Z,32.40
2022-10-24T11:42:34.649Z,33.20
2022-10-24T11:45:12.229Z,33.70
2022-10-24T11:47:54.334Z,34.30
2022-10-24T11:50:23.320Z,34.60
2022-10-24T11:52:54.689Z,34.50
2022-10-24T11:55:28.143Z,34.20
2022-10-24T11:57:57.082Z,34.10
2022-10-24T12:00:25.699Z,34.30
2022-10-24T12:03:11.254Z,34.40
2022-10-24T12:05:45.659Z,34.10
2022-10-24T12:08:31.188Z,34.10
2022-10-24T12:11:10.547Z,33.30
2022-10-24T12:14:14.761Z,32.90
2022-10-24T12:17:18.501Z,33.40
2022-10-24T12:19:45.322Z,33.00
2022-10-24T12:22:24.102Z,32.60
2022-10-24T12:25:29.247Z,32.70
2022-10-24T12:28:23.074Z,31.70
2022-10-24T12:31:22.307Z,31.10
2022-10-24T12:34:10.819Z,30.30
2022-10-24T12:37:02.501Z,29.40
2022-10-24T12:39:47.923Z,28.30
2022-10-24T12:42:23.591Z,27.30
2022-10-24T12:45:02.488Z,26.40
2022-10-24T12:47:33.494Z,25.60
2022-10-24T12:50:23.088Z,25.30
2022-10-24T12:52:56.905Z,25.00
2022-10-24T12:55:30.713Z,24.70
2022-10-24T12:57:57.523Z,24.30
2022-10-24T13:00:28.665Z,23.90
2022-10-24T13:03:27.596Z,23.70
2022-10-24T13:06:18.505Z,23.40
2022-10-24T13:08:54.383Z,23.10
2022-10-24T13:11:51.140Z,22.80
2022-10-24T13:14:26.391Z,22.50
2022-10-24T13:17:01.839Z,22.20
2022-10-24T13:19:28.483Z,22.00
2022-10-24T13:21:56.244Z,21.80
2022-10-24T13:24:36.552Z,21.80
2022-10-24T13:27:10.417Z,21.80
2022-10-24T13:29:39.689Z,21.70
2022-10-24T13:32:06.469Z,21.70
2022-10-24T13:34:51.326Z,21.70
2022-10-24T13:37:24.865Z,21.70
2022-10-24T13:40:08.190Z,21.50
2022-10-24T13:42:40.064Z,21.30
2022-10-24T13:45:39.247Z,21.20
2022-10-24T13:48:13.109Z,21.10
2022-10-24T13:50:50.655Z,20.90
2022-10-24T13:53:30.645Z,20.70
2022-10-24T13:55:59.217Z,20.60
2022-10-24T13:58:26.024Z,20.60
2022-10-24T14:00:55.808Z,20.60
2022-10-24T14:03:23.754Z,20.50
2022-10-24T14:05:55.301Z,20.50
2022-10-24T14:08:24.496Z,20.50
2022-10-24T14:10:51.827Z,20.40
2022-10-24T14:13:18.976Z,20.30
2022-10-24T14:16:12.153Z,20.20
2022-10-24T14:18:38.875Z,20.20
2022-10-24T14:21:05.678Z,20.10
2022-10-24T14:23:37.882Z,20.10
2022-10-24T14:26:06.666Z,20.00
2022-10-24T14:28:34.785Z,20.00
2022-10-24T14:31:07.907Z,19.90
2022-10-24T14:33:45.447Z,19.80
2022-10-24T14:36:12.141Z,19.70
2022-10-24T14:38:38.838Z,19.60
2022-10-24T14:41:09.427Z,19.50
2022-10-24T14:43:37.858Z,19.40
2022-10-24T14:46:13.398Z,19.30
2022-10-24T14:48:44.599Z,19.20
2022-10-24T14:51:31.147Z,19.10
2022-10-24T14:54:00.656Z,19.00
2022-10-24T14:56:36.639Z,18.90
2022-10-24T14:59:05.735Z,18.90
2022-10-24T15:01:32.544Z,18.80
2022-10-24T15:04:03.736Z,18.80
2022-10-24T15:06:38.221Z,18.80
2022-10-24T15:09:14.539Z,18.80
2022-10-24T15:11:42.878Z,18.80
2022-10-24T15:14:40.725Z,18.70
2022-10-24T15:17:28.322Z,18.60
2022-10-24T15:20:00.071Z,18.60
2022-10-24T15:22:33.425Z,18.50
2022-10-24T15:25:01.532Z,18.50
2022-10-24T15:27:48.872Z,18.40
2022-10-24T15:30:16.391Z,18.40
2022-10-24T15:32:43.302Z,18.30
2022-10-24T15:35:10.364Z,18.20
2022-10-24T15:37:37.437Z,18.20
2022-10-24T15:40:12.581Z,18.20
2022-10-24T15:42:39.273Z,18.10
2022-10-24T15:45:16.062Z,18.10
2022-10-24T15:47:42.802Z,18.00
2022-10-24T15:50:13.332Z,17.90
2022-10-24T15:52:40.122Z,17.90
2022-10-24T15:55:07.102Z,17.80
2022-10-24T15:57:33.927Z,17.80
2022-10-24T16:00:00.961Z,17.70
2022-10-24T16:02:27.884Z,17.70
2022-10-24T16:04:54.573Z,17.60
2022-10-24T16:07:23.841Z,17.60
2022-10-24T16:09:50.511Z,17.60
2022-10-24T16:12:17.227Z,17.60
2022-10-24T16:14:43.971Z,17.50
2022-10-24T16:17:10.652Z,17.60
2022-10-24T16:19:37.367Z,17.60
2022-10-24T16:22:04.138Z,17.60
2022-10-24T16:24:30.945Z,17.60
2022-10-24T16:26:57.662Z,17.60
2022-10-24T16:29:24.380Z,17.50
2022-10-24T16:31:51.087Z,17.40
2022-10-24T16:34:18.322Z,17.40
2022-10-24T16:36:45.082Z,17.30
2022-10-24T16:39:11.797Z,17.30
2022-10-24T16:41:38.464Z,17.20
2022-10-24T16:44:05.196Z,17.20
2022-10-24T16:46:31.910Z,17.10
2022-10-24T16:48:58.611Z,17.10
2022-10-24T16:51:27.128Z,17.00
2022-10-24T16:53:53.830Z,17.00
2022-10-24T16:56:20.528Z,16.90
2022-10-24T16:58:47.184Z,16.80
2022-10-24T17:01:14.910Z,16.80
2022-10-24T17:03:41.664Z,16.70
2022-10-24T17:06:08.774Z,16.70
2022-10-24T17:08:35.689Z,16.70
2022-10-24T17:11:02.667Z,16.60
2022-10-24T17:13:29.628Z,16.50
2022-10-24T17:15:56.622Z,16.50
2022-10-24T17:18:23.684Z,16.40
2022-10-24T17:20:50.438Z,16.40
2022-10-24T17:23:19.082Z,16.30
2022-10-24T17:25:46.202Z,16.30
2022-10-24T17:28:13.699Z,16.30
2022-10-24T17:30:40.571Z,16.20
2022-10-24T17:33:07.407Z,16.20
2022-10-24T17:35:34.219Z,16.20
2022-10-24T17:38:07.924Z,16.10
2022-10-24T17:40:39.384Z,16.10
2022-10-24T17:43:06.803Z,16.10
2022-10-24T17:45:33.708Z,16.10
2022-10-24T17:48:00.657Z,16.10
2022-10-24T17:50:27.463Z,16.00
2022-10-24T17:52:54.154Z,16.00
2022-10-24T17:55:44.669Z,16.00
2022-10-24T17:58:09.375Z,16.00
2022-10-24T18:00:36.243Z,16.10
2022-10-24T18:03:02.983Z,16.00
2022-10-24T18:05:29.722Z,16.00
2022-10-24T18:07:56.437Z,16.00
2022-10-24T18:10:23.223Z,16.00
2022-10-24T18:12:50.376Z,15.90
2022-10-24T18:15:17.666Z,15.90
2022-10-24T18:17:44.689Z,15.90
2022-10-24T18:20:11.815Z,15.90
2022-10-24T18:22:38.782Z,15.90
2022-10-24T18:25:06.625Z,15.90
2022-10-24T18:27:34.010Z,15.80
2022-10-24T18:30:00.773Z,15.80
2022-10-24T18:32:27.485Z,15.80
2022-10-24T18:34:54.148Z,15.70
2022-10-24T18:37:20.815Z,15.70
2022-10-24T18:39:47.827Z,15.70
2022-10-24T18:42:35.145Z,15.60
2022-10-24T18:45:02.218Z,15.60
2022-10-24T18:47:29.711Z,15.60
2022-10-24T18:49:56.717Z,15.50
2022-10-24T18:52:35.518Z,15.50
2022-10-24T18:55:12.354Z,15.50
2022-10-24T18:57:39.541Z,15.50
2022-10-24T19:00:07.027Z,15.40
2022-10-24T19:03:11.266Z,15.40
2022-10-24T19:05:42.356Z,15.40
2022-10-24T19:08:14.014Z,15.40
2022-10-24T19:10:40.748Z,15.40
2022-10-24T19:13:07.537Z,15.30
2022-10-24T19:15:35.538Z,15.30
2022-10-24T19:18:02.267Z,15.30
2022-10-24T19:20:28.960Z,15.30
2022-10-24T19:22:55.760Z,15.30
2022-10-24T19:25:22.439Z,15.20
2022-10-24T19:27:49.232Z,15.20
2022-10-24T19:30:16.010Z,15.20
2022-10-24T19:32:42.811Z,15.20
2022-10-24T19:35:09.630Z,15.20
2022-10-24T19:37:36.365Z,15.10
2022-10-24T19:40:03.685Z,15.10
2022-10-24T19:42:30.356Z,15.10
2022-10-24T19:44:57.026Z,15.00
2022-10-24T19:47:23.694Z,15.00
2022-10-24T19:49:50.367Z,15.00
2022-10-24T19:52:17.139Z,15.00
2022-10-24T19:54:43.899Z,15.00
2022-10-24T19:57:11.087Z,15.00
2022-10-24T19:59:37.761Z,14.90
2022-10-24T20:02:04.938Z,14.90
2022-10-24T20:04:31.628Z,14.90
2022-10-24T20:06:58.343Z,14.90
2022-10-24T20:09:25.054Z,14.90
2022-10-24T20:11:51.730Z,14.90
2022-10-24T20:14:18.400Z,14.90
2022-10-24T20:16:45.089Z,14.80
2022-10-24T20:19:11.804Z,14.80
2022-10-24T20:21:38.502Z,14.80
2022-10-24T20:24:05.685Z,14.80
2022-10-24T20:26:32.378Z,14.80
2022-10-24T20:28:59.215Z,14.80
2022-10-24T20:31:32.064Z,14.80
2022-10-24T20:34:04.970Z,14.80
2022-10-24T20:36:35.092Z,14.70
2022-10-24T20:39:01.834Z,14.70
2022-10-24T20:41:28.653Z,14.70
2022-10-24T20:43:55.450Z,14.70
2022-10-24T20:46:22.151Z,14.70
2022-10-24T20:48:48.812Z,14.70
2022-10-24T20:51:17.138Z,14.70
2022-10-24T20:53:43.840Z,14.70
2022-10-24T20:56:12.519Z,14.70
2022-10-24T20:58:40.523Z,14.70
2022-10-24T21:01:08.944Z,14.70
2022-10-24T21:03:36.152Z,14.70
2022-10-24T21:06:03.442Z,14.70
2022-10-24T21:08:30.188Z,14.70
2022-10-24T21:10:56.902Z,14.70
2022-10-24T21:13:23.715Z,14.70
2022-10-24T21:15:55.757Z,14.70
2022-10-24T21:18:22.441Z,14.60
2022-10-24T21:20:49.113Z,14.70
2022-10-24T21:23:15.764Z,14.70
2022-10-24T21:28:14.140Z,14.70
2022-10-24T21:30:40.825Z,14.60
2022-10-24T21:33:07.538Z,14.60
2022-10-24T21:35:34.233Z,14.60
2022-10-24T21:38:00.885Z,14.60
2022-10-24T21:40:27.581Z,14.60
2022-10-24T21:42:54.255Z,14.60
2022-10-24T21:45:20.941Z,14.60
2022-10-24T21:47:47.603Z,14.60
2022-10-24T21:50:17.108Z,14.60
2022-10-24T21:52:44.432Z,14.60
2022-10-24T21:55:11.311Z,14.60
2022-10-24T21:57:38.101Z,14.60
2022-10-24T22:00:05.804Z,14.50
2022-10-24T22:02:32.702Z,14.50
2022-10-24T22:04:59.501Z,14.50
2022-10-24T22:09:53.945Z,14.50
2022-10-24T22:12:20.592Z,14.40
2022-10-24T22:14:47.290Z,14.40
2022-10-24T22:17:13.955Z,14.40
2022-10-24T22:19:40.621Z,14.40
2022-10-24T22:22:07.272Z,14.40
2022-10-24T22:24:34.012Z,14.30
2022-10-24T22:27:00.670Z,14.30
2022-10-24T22:29:27.407Z,14.30
2022-10-24T22:31:54.480Z,14.30
2022-10-24T22:34:22.532Z,14.30
2022-10-24T22:36:56.181Z,14.30
2022-10-24T22:39:24.292Z,14.30
2022-10-24T22:41:51.203Z,14.20
2022-10-24T22:44:18.859Z,14.30
2022-10-24T22:46:54.743Z,14.30
2022-10-24T22:49:47.077Z,14.20
2022-10-24T22:52:14.072Z,14.20
2022-10-24T22:54:42.331Z,14.20
2022-10-24T22:57:09.337Z,14.10
2022-10-24T22:59:36.320Z,14.10
2022-10-24T23:02:23.163Z,14.10
2022-10-24T23:05:06.764Z,14.10
2022-10-24T23:07:42.900Z,14.00
2022-10-24T23:10:11.278Z,14.00
2022-10-24T23:12:38.397Z,14.00
2022-10-24T23:15:05.790Z,14.00
2022-10-24T23:17:32.778Z,14.00
2022-10-24T23:19:59.886Z,13.90
2022-10-24T23:22:27.283Z,13.90
2022-10-24T23:25:00.847Z,13.90
2022-10-24T23:27:36.453Z,13.90
2022-10-24T23:30:05.762Z,13.80
2022-10-24T23:32:33.817Z,13.80
2022-10-24T23:35:00.931Z,13.80
2022-10-24T23:37:31.780Z,13.80
2022-10-24T23:40:17.272Z,13.80
2022-10-24T23:42:50.454Z,13.80
2022-10-24T23:45:19.208Z,13.70
2022-10-24T23:47:55.133Z,13.70
2022-10-24T23:50:34.567Z,13.70
2022-10-24T23:53:23.003Z,13.60
2022-10-24T23:55:49.939Z,13.70
2022-10-24T23:58:17.689Z,13.60
